Phayao, Thailand
Current Conditions -  °F | °C
As of 2:00 PM on Friday 24 Oct 2014 (Local Time) from VTCT Reporting Station
Broken Clouds Broken Clouds  
Wind Chill: 84°   Ceiling: 2500
Heat Index: 87°   Visibility: 6mi
Dew Point: 68°   Wind: 5mph
Humidity: 58%   Direction: 360°N
Pressure: 29.88"   Gusts: NA
Location:  19.17°N, 99.91°E
Report Text: VTCT 240700Z 36004KT 9999 BKN025 29/20 Q1012 A2988RMK/RWY03 INFO H
Loading
Personal Weather Stations






























Interactive Weather Map
Tropical Storm Tracking
New forecast layout! Learn more

10-Day Weather Forecast

Advertisements
Track Severe Weather on mobile